Time;durP1;ratioP1;P1;durP2;ratioP2;P2;SDS_P1;SDS_P2;PMS_P1;PMS_P2;Temp;Humidity;BMP_temperature;BMP_pressure;BME280_temperature;BME280_humidity;BME280_pressure;Samples;Min_cycle;Max_cycle;Signal;HPM_P1;HPM_P2
2022/05/04 00:01:17;;;;;;;;;;;13.80;90.40;;;;;;5094327;28;20054;-70
2022/05/04 00:03:42;;;;;;;;;;;13.70;90.50;;;;;;5094256;28;19915;-71
2022/05/04 00:06:09;;;;;;;;;;;13.70;90.50;;;;;;5094081;28;19924;-70
2022/05/04 00:08:34;;;;;;;;;;;13.70;90.50;;;;;;5094231;28;19909;-71
2022/05/04 00:11:00;;;;;;;;;;;13.60;90.60;;;;;;5094133;28;19922;-71
2022/05/04 00:13:26;;;;;;;;;;;13.70;90.90;;;;;;5094388;28;20015;-72
2022/05/04 00:15:52;;;;;;;;;;;13.60;90.70;;;;;;5094138;28;20397;-72
2022/05/04 00:18:17;;;;;;;;;;;13.60;90.70;;;;;;5093830;28;19920;-70
2022/05/04 00:20:43;;;;;;;;;;;13.60;90.60;;;;;;5093791;28;19963;-70
2022/05/04 00:23:08;;;;;;;;;;;13.60;90.80;;;;;;5094145;28;19914;-70
2022/05/04 00:25:34;;;;;;;;;;;13.50;90.80;;;;;;5093812;28;19912;-71
2022/05/04 00:28:00;;;;;;;;;;;13.50;90.90;;;;;;5094123;28;19916;-70
2022/05/04 00:30:26;;;;;;;;;;;13.50;91.00;;;;;;5094062;28;19908;-70
2022/05/04 00:32:51;;;;;;;;;;;13.40;91.00;;;;;;5094118;28;19916;-70
2022/05/04 00:35:17;;;;;;;;;;;13.40;91.10;;;;;;5093890;28;19915;-71
2022/05/04 00:37:42;;;;;;;;;;;13.30;91.10;;;;;;5093647;28;20464;-70
2022/05/04 00:40:08;;;;;;;;;;;13.30;91.40;;;;;;5093374;28;19994;-71
2022/05/04 00:42:34;;;;;;;;;;;13.30;91.40;;;;;;5093974;28;19931;-71
2022/05/04 00:44:59;;;;;;;;;;;13.30;91.40;;;;;;5093500;28;20363;-72
2022/05/04 00:47:25;;;;;;;;;;;13.40;91.50;;;;;;5093808;28;19924;-71
2022/05/04 00:49:52;;;;;;;;;;;13.30;91.30;;;;;;5093290;28;19908;-71
2022/05/04 00:52:17;;;;;;;;;;;13.30;91.30;;;;;;5093344;28;20310;-71
2022/05/04 00:54:43;;;;;;;;;;;13.30;91.20;;;;;;5093331;28;19909;-71
2022/05/04 00:57:11;;;;;;;;;;;13.30;91.30;;;;;;5093172;28;19924;-71
2022/05/04 00:59:37;;;;;;;;;;;13.30;91.50;;;;;;5093089;28;19916;-71
2022/05/04 01:02:03;;;;;;;;;;;13.20;91.50;;;;;;5093390;28;19927;-71
2022/05/04 01:04:29;;;;;;;;;;;13.20;91.60;;;;;;5093167;28;20380;-71
2022/05/04 01:06:55;;;;;;;;;;;13.10;91.80;;;;;;5093077;28;20044;-71
2022/05/04 01:09:21;;;;;;;;;;;13.00;91.70;;;;;;5093323;28;20344;-71
2022/05/04 01:11:46;;;;;;;;;;;13.10;91.90;;;;;;5093237;28;20007;-71
2022/05/04 01:14:12;;;;;;;;;;;13.00;91.90;;;;;;5093247;28;19908;-71
2022/05/04 01:16:39;;;;;;;;;;;13.00;92.10;;;;;;5092865;28;20264;-71
2022/05/04 01:19:04;;;;;;;;;;;13.00;92.30;;;;;;5092834;28;20005;-71
2022/05/04 01:21:30;;;;;;;;;;;13.00;92.30;;;;;;5092374;28;19967;-71
2022/05/04 01:23:59;;;;;;;;;;;12.90;92.40;;;;;;5092621;28;19951;-71
2022/05/04 01:26:24;;;;;;;;;;;12.90;92.50;;;;;;5091335;28;20023;-70
2022/05/04 01:28:49;;;;;;;;;;;12.80;92.50;;;;;;5092562;28;20362;-70
2022/05/04 01:31:15;;;;;;;;;;;12.80;92.80;;;;;;5092665;28;19927;-70
2022/05/04 01:33:41;;;;;;;;;;;12.80;93.00;;;;;;5092577;28;19909;-71
2022/05/04 01:36:06;;;;;;;;;;;12.70;92.90;;;;;;5092435;28;20354;-70
2022/05/04 01:38:32;;;;;;;;;;;12.80;93.10;;;;;;5092773;28;19957;-70
2022/05/04 01:40:58;;;;;;;;;;;12.80;93.00;;;;;;5092340;28;19935;-71
2022/05/04 01:43:23;;;;;;;;;;;12.80;93.20;;;;;;5092440;28;19908;-70
2022/05/04 01:45:49;;;;;;;;;;;12.80;93.00;;;;;;5092276;28;19941;-70
2022/05/04 01:48:14;;;;;;;;;;;12.80;93.10;;;;;;5092277;28;19913;-70
2022/05/04 01:50:40;;;;;;;;;;;12.80;93.10;;;;;;5092114;28;19925;-71
2022/05/04 01:53:06;;;;;;;;;;;12.80;93.10;;;;;;5092269;28;19958;-71
2022/05/04 01:55:35;;;;;;;;;;;12.80;93.20;;;;;;5092310;28;19958;-70
2022/05/04 01:58:00;;;;;;;;;;;12.70;93.20;;;;;;5092631;28;20391;-71
2022/05/04 02:00:26;;;;;;;;;;;12.70;93.30;;;;;;5091922;28;20010;-71
2022/05/04 02:02:53;;;;;;;;;;;12.70;93.30;;;;;;5092444;28;20360;-70
2022/05/04 02:05:18;;;;;;;;;;;12.70;93.50;;;;;;5091992;28;19915;-71
2022/05/04 02:07:44;;;;;;;;;;;12.60;93.80;;;;;;5092453;28;19920;-71
2022/05/04 02:10:10;;;;;;;;;;;12.60;93.70;;;;;;5091887;28;19919;-71
2022/05/04 02:12:36;;;;;;;;;;;12.50;93.80;;;;;;5092408;28;20002;-70
2022/05/04 02:15:03;;;;;;;;;;;12.60;93.90;;;;;;5091791;28;19909;-70
2022/05/04 02:17:28;;;;;;;;;;;12.40;94.20;;;;;;5091778;28;20343;-70
2022/05/04 02:19:54;;;;;;;;;;;12.40;94.10;;;;;;5091646;28;20287;-70
2022/05/04 02:22:19;;;;;;;;;;;12.40;94.30;;;;;;5092102;28;19916;-71
2022/05/04 02:24:45;;;;;;;;;;;12.30;94.20;;;;;;5091636;28;20287;-71
2022/05/04 02:27:10;;;;;;;;;;;12.30;94.40;;;;;;5091960;28;19920;-70
2022/05/04 02:29:36;;;;;;;;;;;12.20;94.70;;;;;;5090546;28;20291;-70
2022/05/04 02:32:01;;;;;;;;;;;12.20;94.70;;;;;;5091754;28;19969;-70
2022/05/04 02:34:27;;;;;;;;;;;12.20;94.70;;;;;;5091369;28;19914;-70
2022/05/04 02:39:36;;;;;;;;;;;12.10;95.00;;;;;;5091696;28;20057;-71
2022/05/04 02:42:02;;;;;;;;;;;12.10;95.30;;;;;;5090173;28;20018;-71
2022/05/04 02:44:27;;;;;;;;;;;12.00;95.30;;;;;;5091486;28;19916;-72
2022/05/04 02:46:53;;;;;;;;;;;12.00;95.50;;;;;;5091181;28;19942;-71
2022/05/04 02:49:18;;;;;;;;;;;11.90;95.50;;;;;;5091403;28;19908;-71
2022/05/04 02:51:44;;;;;;;;;;;11.90;95.70;;;;;;5091384;28;20252;-71
2022/05/04 02:54:10;;;;;;;;;;;11.80;95.90;;;;;;5091278;28;19908;-71
2022/05/04 02:56:35;;;;;;;;;;;11.80;96.20;;;;;;5091326;28;20372;-70
2022/05/04 02:59:01;;;;;;;;;;;11.70;96.30;;;;;;5091341;28;19944;-71
2022/05/04 03:04:10;;;;;;;;;;;11.80;96.40;;;;;;5091284;28;19914;-71
2022/05/04 03:06:37;;;;;;;;;;;11.70;96.60;;;;;;5091253;28;20015;-71
2022/05/04 03:09:03;;;;;;;;;;;11.70;96.90;;;;;;5089874;28;19915;-72
2022/05/04 03:14:13;;;;;;;;;;;11.70;97.20;;;;;;5091582;28;19915;-70
2022/05/04 03:16:39;;;;;;;;;;;11.70;97.10;;;;;;5089328;28;19916;-70
2022/05/04 03:19:05;;;;;;;;;;;11.70;97.40;;;;;;5089719;28;19962;-71
2022/05/04 03:21:31;;;;;;;;;;;11.70;97.70;;;;;;5090956;28;19942;-71
2022/05/04 03:23:57;;;;;;;;;;;11.80;97.50;;;;;;5090990;28;20773;-71
2022/05/04 03:26:24;;;;;;;;;;;11.70;97.30;;;;;;5091163;28;20390;-71
2022/05/04 03:28:49;;;;;;;;;;;11.70;97.60;;;;;;5091312;28;20433;-71
2022/05/04 03:31:15;;;;;;;;;;;11.70;97.80;;;;;;5090696;28;19931;-70
2022/05/04 03:33:40;;;;;;;;;;;11.70;97.80;;;;;;5091043;28;19962;-71
2022/05/04 03:36:06;;;;;;;;;;;11.70;97.80;;;;;;5090936;28;19916;-71
2022/05/04 03:38:32;;;;;;;;;;;11.80;97.90;;;;;;5090947;28;19916;-71
2022/05/04 03:40:58;;;;;;;;;;;11.80;98.00;;;;;;5090579;28;19932;-71
2022/05/04 03:43:23;;;;;;;;;;;11.90;97.90;;;;;;5090873;28;19908;-71
2022/05/04 03:45:48;;;;;;;;;;;11.80;97.70;;;;;;5092654;28;19998;-71
2022/05/04 03:48:14;;;;;;;;;;;11.90;97.70;;;;;;5094626;28;20356;-71
2022/05/04 03:50:39;;;;;;;;;;;12.00;97.80;;;;;;5094559;28;19908;-70
2022/05/04 03:53:05;;;;;;;;;;;12.00;97.80;;;;;;5093193;28;19960;-71
2022/05/04 03:55:30;;;;;;;;;;;11.90;98.00;;;;;;5094644;28;19912;-71
2022/05/04 03:57:56;;;;;;;;;;;11.90;98.20;;;;;;5094901;28;20357;-71
2022/05/04 04:00:22;;;;;;;;;;;11.90;98.20;;;;;;5093058;28;20379;-71
2022/05/04 04:02:48;;;;;;;;;;;12.00;98.20;;;;;;5094763;28;20326;-71
2022/05/04 04:05:14;;;;;;;;;;;12.00;98.10;;;;;;5093047;28;19908;-70
2022/05/04 04:07:39;;;;;;;;;;;12.00;98.10;;;;;;5094743;28;20302;-71
2022/05/04 04:10:05;;;;;;;;;;;12.10;98.40;;;;;;5094359;28;19973;-70
2022/05/04 04:12:30;;;;;;;;;;;12.10;98.10;;;;;;5092717;28;19920;-71
2022/05/04 04:14:56;;;;;;;;;;;12.10;98.40;;;;;;5094019;28;19978;-71
2022/05/04 04:17:21;;;;;;;;;;;12.10;98.30;;;;;;5093908;28;20050;-71
2022/05/04 04:21:50;;;;;;;;;;;12.20;98.30;;;;;;5094101;28;19935;-71
2022/05/04 04:22:32;;;;;;;;;;;12.20;98.40;;;;;;5094336;28;20384;-72
2022/05/04 04:24:57;;;;;;;;;;;12.20;98.50;;;;;;5094099;28;20031;-71
2022/05/04 04:27:23;;;;;;;;;;;12.20;98.50;;;;;;5094300;28;19916;-71
2022/05/04 04:29:49;;;;;;;;;;;12.10;98.70;;;;;;5093971;28;19912;-70
2022/05/04 04:32:14;;;;;;;;;;;12.20;98.80;;;;;;5094139;28;19967;-71
2022/05/04 04:34:40;;;;;;;;;;;12.20;99.00;;;;;;5092510;28;19908;-70
2022/05/04 04:37:05;;;;;;;;;;;12.30;98.90;;;;;;5093948;28;19969;-71
2022/05/04 04:39:31;;;;;;;;;;;12.40;98.60;;;;;;5093653;28;19915;-71
2022/05/04 04:41:56;;;;;;;;;;;12.50;98.80;;;;;;5093496;28;19972;-70
2022/05/04 04:44:21;;;;;;;;;;;12.50;98.80;;;;;;5092298;28;19908;-70
2022/05/04 04:46:47;;;;;;;;;;;12.60;98.40;;;;;;5093953;28;19916;-70
2022/05/04 04:49:12;;;;;;;;;;;12.70;98.50;;;;;;5093634;28;20318;-71
2022/05/04 04:51:38;;;;;;;;;;;12.80;98.30;;;;;;5093608;28;19938;-70
2022/05/04 04:54:03;;;;;;;;;;;12.90;98.10;;;;;;5093342;28;19958;-70
2022/05/04 04:56:29;;;;;;;;;;;13.00;98.10;;;;;;5093153;28;19916;-70
2022/05/04 04:58:54;;;;;;;;;;;13.10;98.00;;;;;;5093078;28;19912;-71
2022/05/04 05:01:20;;;;;;;;;;;13.20;97.50;;;;;;5093154;28;20390;-70
2022/05/04 05:03:45;;;;;;;;;;;13.30;97.50;;;;;;5093148;28;19913;-71
2022/05/04 05:06:12;;;;;;;;;;;13.40;97.20;;;;;;5093208;28;19923;-72
2022/05/04 05:08:41;;;;;;;;;;;13.60;96.70;;;;;;5093295;28;20292;-70
2022/05/04 05:11:06;;;;;;;;;;;13.60;96.50;;;;;;5093087;28;20017;-70
2022/05/04 05:13:32;;;;;;;;;;;13.70;96.70;;;;;;5092988;28;19943;-71
2022/05/04 05:16:09;;;;;;;;;;;13.70;96.50;;;;;;5092972;28;20284;-70
2022/05/04 05:18:35;;;;;;;;;;;13.80;96.20;;;;;;5092748;28;19946;-70
2022/05/04 05:21:01;;;;;;;;;;;13.90;96.30;;;;;;5091435;28;19955;-70
2022/05/04 05:23:26;;;;;;;;;;;14.00;96.00;;;;;;5092776;28;19950;-70
2022/05/04 05:25:52;;;;;;;;;;;14.10;95.70;;;;;;5092892;28;19951;-71
2022/05/04 05:28:17;;;;;;;;;;;14.10;95.30;;;;;;5092612;28;19912;-72
2022/05/04 05:30:43;;;;;;;;;;;14.30;95.60;;;;;;5092607;28;19915;-70
2022/05/04 05:33:08;;;;;;;;;;;14.40;95.40;;;;;;5092662;28;20119;-71
2022/05/04 05:35:34;;;;;;;;;;;14.40;95.10;;;;;;5092838;28;19908;-71
2022/05/04 05:37:59;;;;;;;;;;;14.40;95.00;;;;;;5092795;28;19923;-71
2022/05/04 05:40:25;;;;;;;;;;;14.40;95.00;;;;;;5092639;28;20415;-70
2022/05/04 05:42:50;;;;;;;;;;;14.50;94.90;;;;;;5092722;28;19927;-70
2022/05/04 05:45:16;;;;;;;;;;;14.60;94.80;;;;;;5092359;28;20248;-70
2022/05/04 05:47:41;;;;;;;;;;;14.70;94.40;;;;;;5092663;28;19938;-70
2022/05/04 05:50:07;;;;;;;;;;;14.80;94.20;;;;;;5092229;28;19912;-69
2022/05/04 05:52:33;;;;;;;;;;;14.90;93.70;;;;;;5092678;28;19916;-70
2022/05/04 05:54:58;;;;;;;;;;;14.90;93.80;;;;;;5092238;28;20169;-70
2022/05/04 05:57:24;;;;;;;;;;;15.00;93.60;;;;;;5092439;28;20520;-71
2022/05/04 05:59:49;;;;;;;;;;;14.90;93.20;;;;;;5092089;28;19923;-71
2022/05/04 06:02:15;;;;;;;;;;;14.90;93.70;;;;;;5092458;28;20368;-71
2022/05/04 06:04:40;;;;;;;;;;;14.80;94.00;;;;;;5092395;28;19916;-71
2022/05/04 06:07:06;;;;;;;;;;;15.00;94.10;;;;;;5091878;28;20383;-70
2022/05/04 06:09:31;;;;;;;;;;;15.20;93.40;;;;;;5091774;28;19908;-71
2022/05/04 06:11:57;;;;;;;;;;;15.30;93.10;;;;;;5092244;28;20359;-71
2022/05/04 06:14:22;;;;;;;;;;;15.40;93.30;;;;;;5091870;28;19912;-71
2022/05/04 06:16:49;;;;;;;;;;;15.50;92.60;;;;;;5091723;28;19916;-71
2022/05/04 06:19:15;;;;;;;;;;;15.70;92.50;;;;;;5090774;28;19912;-70
2022/05/04 06:21:40;;;;;;;;;;;15.80;92.10;;;;;;5091991;28;19968;-70
2022/05/04 06:24:06;;;;;;;;;;;15.90;91.80;;;;;;5091721;28;19915;-72
2022/05/04 06:26:32;;;;;;;;;;;15.90;91.80;;;;;;5091795;28;20360;-72
2022/05/04 06:28:57;;;;;;;;;;;16.00;91.70;;;;;;5091590;28;19944;-71
2022/05/04 06:34:07;;;;;;;;;;;16.30;91.30;;;;;;5091515;28;20390;-71
2022/05/04 06:36:35;;;;;;;;;;;16.10;90.70;;;;;;5091718;28;19919;-71
2022/05/04 06:39:01;;;;;;;;;;;16.20;90.80;;;;;;5091795;28;20253;-70
2022/05/04 06:41:27;;;;;;;;;;;16.10;91.30;;;;;;5091434;28;19924;-71
2022/05/04 06:43:52;;;;;;;;;;;16.30;91.40;;;;;;5091582;28;20406;-71
2022/05/04 06:46:18;;;;;;;;;;;16.30;91.60;;;;;;5091441;28;19939;-71
2022/05/04 06:48:45;;;;;;;;;;;16.50;91.60;;;;;;5091373;28;19970;-71
2022/05/04 06:51:11;;;;;;;;;;;16.60;91.60;;;;;;5091383;28;19916;-71
2022/05/04 06:53:36;;;;;;;;;;;16.50;91.40;;;;;;5091322;28;20011;-71
2022/05/04 06:56:02;;;;;;;;;;;16.60;91.00;;;;;;5091568;28;19924;-69
2022/05/04 06:58:27;;;;;;;;;;;16.60;90.50;;;;;;5091570;28;20336;-70
2022/05/04 07:00:53;;;;;;;;;;;16.60;90.60;;;;;;5091109;28;19912;-69
2022/05/04 07:03:21;;;;;;;;;;;16.70;90.70;;;;;;5091260;28;19915;-70
2022/05/04 07:05:46;;;;;;;;;;;16.90;90.60;;;;;;5091113;28;19960;-72
2022/05/04 07:08:12;;;;;;;;;;;17.20;90.00;;;;;;5091055;28;20002;-71
2022/05/04 07:10:37;;;;;;;;;;;17.30;90.00;;;;;;5091050;28;19999;-71
2022/05/04 07:13:03;;;;;;;;;;;17.30;89.50;;;;;;5091192;28;19977;-70
2022/05/04 07:15:28;;;;;;;;;;;17.30;89.20;;;;;;5090938;28;19912;-70
2022/05/04 07:17:55;;;;;;;;;;;17.40;89.00;;;;;;5090827;28;19967;-70
2022/05/04 07:20:21;;;;;;;;;;;17.50;86.90;;;;;;5092422;28;20332;-70
2022/05/04 07:22:46;;;;;;;;;;;17.60;86.90;;;;;;5095597;28;20368;-70
2022/05/04 07:25:12;;;;;;;;;;;17.70;87.20;;;;;;5095392;28;19908;-70
2022/05/04 07:27:37;;;;;;;;;;;17.70;86.90;;;;;;5095371;28;19939;-69
2022/05/04 07:30:03;;;;;;;;;;;17.90;86.30;;;;;;5093553;28;20049;-70
2022/05/04 07:32:29;;;;;;;;;;;18.10;85.80;;;;;;5095370;28;20280;-70
2022/05/04 07:34:54;;;;;;;;;;;18.30;86.20;;;;;;5095066;28;19908;-70
2022/05/04 07:37:20;;;;;;;;;;;18.50;84.10;;;;;;5094719;28;20006;-70
2022/05/04 07:42:29;;;;;;;;;;;18.50;84.50;;;;;;5095038;28;19931;-69
2022/05/04 07:45:00;;;;;;;;;;;18.50;84.60;;;;;;5095063;28;19916;-70
2022/05/04 07:47:27;;;;;;;;;;;18.50;86.40;;;;;;5094841;28;20430;-69
2022/05/04 07:49:53;;;;;;;;;;;18.70;84.90;;;;;;5093224;28;19923;-69
2022/05/04 07:52:18;;;;;;;;;;;18.80;84.20;;;;;;5095026;28;19920;-70
2022/05/04 07:54:44;;;;;;;;;;;18.80;83.70;;;;;;5094664;28;19908;-69
2022/05/04 07:57:10;;;;;;;;;;;18.70;83.90;;;;;;5094869;28;19955;-70
2022/05/04 07:59:36;;;;;;;;;;;18.70;84.20;;;;;;5094472;28;19912;-70
2022/05/04 08:04:45;;;;;;;;;;;19.10;85.00;;;;;;5094688;28;19957;-70
2022/05/04 08:07:11;;;;;;;;;;;19.30;84.50;;;;;;5094766;28;20326;-70
2022/05/04 08:09:36;;;;;;;;;;;19.40;84.80;;;;;;5094408;28;20352;-69
2022/05/04 08:12:03;;;;;;;;;;;19.40;84.60;;;;;;5094596;28;19963;-69
2022/05/04 08:14:29;;;;;;;;;;;19.40;84.20;;;;;;5092628;28;19992;-71
2022/05/04 08:16:54;;;;;;;;;;;19.50;84.00;;;;;;5093971;28;19946;-72
2022/05/04 08:19:20;;;;;;;;;;;19.60;82.50;;;;;;5092756;28;19954;-71
2022/05/04 08:21:45;;;;;;;;;;;19.60;80.40;;;;;;5094009;28;20023;-71
2022/05/04 08:24:10;;;;;;;;;;;19.70;80.10;;;;;;5093983;28;19908;-71
2022/05/04 08:26:36;;;;;;;;;;;19.60;78.50;;;;;;5093914;28;20284;-72
2022/05/04 08:29:01;;;;;;;;;;;19.00;76.60;;;;;;5093966;28;19912;-71
2022/05/04 08:31:28;;;;;;;;;;;18.40;78.30;;;;;;5092576;28;19916;-71
2022/05/04 08:33:54;;;;;;;;;;;17.70;79.40;;;;;;5093549;28;19912;-71
2022/05/04 08:36:19;;;;;;;;;;;17.30;80.30;;;;;;5093893;28;20320;-71
2022/05/04 08:38:45;;;;;;;;;;;17.20;81.20;;;;;;5093605;28;19966;-72
2022/05/04 08:41:10;;;;;;;;;;;16.90;81.40;;;;;;5093729;28;20014;-71
2022/05/04 08:43:39;;;;;;;;;;;16.80;80.00;;;;;;5093792;28;19916;-70
2022/05/04 08:46:04;;;;;;;;;;;17.00;78.70;;;;;;5093560;28;20279;-70
2022/05/04 08:48:32;;;;;;;;;;;17.10;78.40;;;;;;5093485;28;19915;-70
2022/05/04 08:51:02;;;;;;;;;;;17.30;79.10;;;;;;5093425;28;20360;-70
2022/05/04 08:53:28;;;;;;;;;;;17.30;77.60;;;;;;5092101;28;19908;-70
2022/05/04 08:55:54;;;;;;;;;;;17.20;78.10;;;;;;5093199;28;20386;-69
2022/05/04 08:58:20;;;;;;;;;;;17.20;78.80;;;;;;5093546;28;19915;-69
2022/05/04 09:00:45;;;;;;;;;;;17.30;79.40;;;;;;5092908;28;19935;-70
2022/05/04 09:03:11;;;;;;;;;;;17.50;79.30;;;;;;5093237;28;20384;-69
2022/05/04 09:05:40;;;;;;;;;;;17.80;78.70;;;;;;5093302;28;19919;-68
2022/05/04 09:08:06;;;;;;;;;;;18.20;78.60;;;;;;5093046;28;19920;-69
2022/05/04 09:10:36;;;;;;;;;;;18.80;77.50;;;;;;5093141;28;19992;-69
2022/05/04 09:13:03;;;;;;;;;;;19.30;76.60;;;;;;5093438;28;19916;-70
2022/05/04 09:15:33;;;;;;;;;;;19.70;75.60;;;;;;5093435;28;19908;-69
2022/05/04 09:17:59;;;;;;;;;;;20.00;73.70;;;;;;5092872;28;19935;-69
2022/05/04 09:20:45;;;;;;;;;;;20.10;72.80;;;;;;5092911;28;20393;-70
2022/05/04 09:23:21;;;;;;;;;;;20.20;73.00;;;;;;5092934;28;19920;-71
2022/05/04 09:25:48;;;;;;;;;;;20.20;73.50;;;;;;5092735;28;19912;-73
2022/05/04 09:28:14;;;;;;;;;;;20.20;73.40;;;;;;5092773;28;20283;-72
2022/05/04 09:30:47;;;;;;;;;;;20.20;72.60;;;;;;5091160;28;20364;-71
2022/05/04 09:33:20;;;;;;;;;;;20.40;72.60;;;;;;5092366;28;19909;-69
2022/05/04 09:35:46;;;;;;;;;;;20.50;72.20;;;;;;5092307;28;19919;-70
2022/05/04 09:46:33;;;;;;;;;;;21.10;69.00;;;;;;5092717;28;20275;-71
2022/05/04 09:49:05;;;;;;;;;;;20.90;68.50;;;;;;5092197;28;19908;-70
2022/05/04 09:51:32;;;;;;;;;;;20.60;67.20;;;;;;5092325;28;19939;-70
2022/05/04 09:54:11;;;;;;;;;;;20.50;68.30;;;;;;5092342;28;19937;-69
2022/05/04 09:56:36;;;;;;;;;;;20.50;68.70;;;;;;5091963;28;19924;-69
2022/05/04 09:59:02;;;;;;;;;;;20.70;68.00;;;;;;5092148;28;19915;-69
2022/05/04 10:01:27;;;;;;;;;;;20.80;67.00;;;;;;5092131;28;19924;-69
2022/05/04 10:03:53;;;;;;;;;;;20.80;67.20;;;;;;5091957;28;19908;-69
2022/05/04 10:06:19;;;;;;;;;;;21.10;66.60;;;;;;5092158;28;20278;-68
2022/05/04 10:08:44;;;;;;;;;;;21.20;66.00;;;;;;5092059;28;19961;-68
2022/05/04 10:11:10;;;;;;;;;;;21.40;66.40;;;;;;5092076;28;19917;-69
2022/05/04 10:13:35;;;;;;;;;;;21.50;65.80;;;;;;5092311;28;20364;-68
2022/05/04 10:16:01;;;;;;;;;;;21.50;65.30;;;;;;5092127;28;19916;-68
2022/05/04 10:18:29;;;;;;;;;;;21.80;64.60;;;;;;5091790;28;20046;-71
2022/05/04 10:20:54;;;;;;;;;;;21.90;63.80;;;;;;5091713;28;19958;-69
2022/05/04 10:23:23;;;;;;;;;;;22.10;62.90;;;;;;5091273;28;20436;-69
2022/05/04 10:25:50;;;;;;;;;;;22.40;62.90;;;;;;5091606;28;19994;-70
2022/05/04 10:28:16;;;;;;;;;;;22.40;61.20;;;;;;5091855;28;20655;-71
2022/05/04 10:30:51;;;;;;;;;;;22.20;60.50;;;;;;5091658;28;20298;-70
2022/05/04 10:33:19;;;;;;;;;;;22.10;60.50;;;;;;5090197;28;19916;-71
2022/05/04 10:35:45;;;;;;;;;;;21.90;60.90;;;;;;5091427;28;19914;-71
2022/05/04 10:38:11;;;;;;;;;;;21.80;60.90;;;;;;5091560;28;19951;-70
2022/05/04 10:40:36;;;;;;;;;;;21.70;60.30;;;;;;5092063;28;19959;-70
2022/05/04 10:43:06;;;;;;;;;;;21.20;61.00;;;;;;5091931;28;19912;-70
2022/05/04 10:45:35;;;;;;;;;;;21.10;63.10;;;;;;5091488;28;19962;-70
2022/05/04 10:48:18;;;;;;;;;;;21.50;62.10;;;;;;5091807;28;19912;-71
2022/05/04 10:51:04;;;;;;;;;;;21.60;61.10;;;;;;5091292;28;19912;-70
2022/05/04 10:53:29;;;;;;;;;;;21.70;60.80;;;;;;5091420;28;19966;-72
2022/05/04 10:56:01;;;;;;;;;;;21.80;60.40;;;;;;5090737;28;19908;-69
2022/05/04 10:58:37;;;;;;;;;;;22.10;60.00;;;;;;5089716;28;19927;-70
2022/05/04 11:01:03;;;;;;;;;;;22.40;59.30;;;;;;5091165;28;19923;-70
2022/05/04 11:03:36;;;;;;;;;;;22.50;59.10;;;;;;5091365;28;19955;-70
2022/05/04 11:06:08;;;;;;;;;;;22.20;58.30;;;;;;5091277;28;19912;-72
2022/05/04 11:08:36;;;;;;;;;;;22.20;58.50;;;;;;5091290;28;19947;-71
2022/05/04 11:11:03;;;;;;;;;;;22.50;58.10;;;;;;5089906;28;19912;-72
2022/05/04 11:13:29;;;;;;;;;;;22.70;58.70;;;;;;5091395;28;19912;-72
2022/05/04 11:15:57;;;;;;;;;;;22.80;57.50;;;;;;5091551;28;19916;-72
2022/05/04 11:18:23;;;;;;;;;;;22.80;57.50;;;;;;5091149;28;19924;-72
2022/05/04 11:20:50;;;;;;;;;;;22.70;57.50;;;;;;5091351;28;19946;-72
2022/05/04 11:23:22;;;;;;;;;;;22.50;57.50;;;;;;5091153;28;19916;-72
2022/05/04 11:25:51;;;;;;;;;;;22.50;57.80;;;;;;5091050;28;19907;-72
2022/05/04 11:28:22;;;;;;;;;;;22.40;57.90;;;;;;5091332;28;20366;-72
2022/05/04 11:30:48;;;;;;;;;;;22.60;57.40;;;;;;5091142;28;19915;-71
2022/05/04 11:33:14;;;;;;;;;;;22.30;57.60;;;;;;5091015;28;19916;-73
2022/05/04 11:35:43;;;;;;;;;;;22.20;58.00;;;;;;5090922;28;19908;-72
2022/05/04 11:38:15;;;;;;;;;;;22.10;57.80;;;;;;5091198;28;19920;-72
2022/05/04 11:40:45;;;;;;;;;;;22.20;58.40;;;;;;5090896;28;20041;-72
2022/05/04 11:43:20;;;;;;;;;;;22.30;57.70;;;;;;5090843;28;19923;-72
2022/05/04 11:45:46;;;;;;;;;;;22.30;57.30;;;;;;5090993;28;19916;-72
2022/05/04 11:48:12;;;;;;;;;;;22.10;56.80;;;;;;5090844;28;19939;-72
2022/05/04 11:50:37;;;;;;;;;;;21.90;57.50;;;;;;5090881;28;20387;-73
2022/05/04 11:53:03;;;;;;;;;;;21.70;58.10;;;;;;5089681;28;19989;-72
2022/05/04 11:55:29;;;;;;;;;;;21.60;58.60;;;;;;5090809;28;19986;-73
2022/05/04 11:57:58;;;;;;;;;;;21.50;58.20;;;;;;5091147;28;19908;-72
2022/05/04 12:00:24;;;;;;;;;;;21.40;58.50;;;;;;5090727;28;19931;-74
2022/05/04 12:02:49;;;;;;;;;;;21.30;58.20;;;;;;5089791;28;20311;-72
2022/05/04 12:05:15;;;;;;;;;;;21.10;58.20;;;;;;5091091;28;20256;-72
2022/05/04 12:07:41;;;;;;;;;;;21.10;58.80;;;;;;5094066;28;19957;-73
2022/05/04 12:10:07;;;;;;;;;;;21.10;59.20;;;;;;5094761;28;19920;-72
2022/05/04 12:12:33;;;;;;;;;;;21.10;59.10;;;;;;5094977;28;20401;-72
2022/05/04 12:15:00;;;;;;;;;;;21.00;59.10;;;;;;5094215;28;20342;-72
2022/05/04 12:17:26;;;;;;;;;;;20.80;58.90;;;;;;5094215;28;19924;-73
2022/05/04 12:19:52;;;;;;;;;;;20.90;58.90;;;;;;5094021;28;19919;-73
2022/05/04 12:22:18;;;;;;;;;;;21.00;59.00;;;;;;5094260;28;19919;-73
2022/05/04 12:24:43;;;;;;;;;;;21.00;59.10;;;;;;5094125;28;19959;-72
2022/05/04 12:27:09;;;;;;;;;;;21.20;59.50;;;;;;5094061;28;19951;-73
2022/05/04 12:35:04;;;;;;;;;;;20.90;59.20;;;;;;5094204;28;19918;-72
2022/05/04 12:37:30;;;;;;;;;;;20.60;59.60;;;;;;5093883;28;20231;-73
2022/05/04 12:39:56;;;;;;;;;;;20.40;59.80;;;;;;5093718;28;19920;-73
2022/05/04 12:42:22;;;;;;;;;;;20.20;60.00;;;;;;5092704;28;19912;-72
2022/05/04 12:44:48;;;;;;;;;;;20.10;60.50;;;;;;5092660;28;19976;-72
2022/05/04 12:47:13;;;;;;;;;;;19.90;60.30;;;;;;5094111;28;19952;-72
2022/05/04 12:49:40;;;;;;;;;;;19.80;60.40;;;;;;5093412;28;19930;-73
2022/05/04 12:52:05;;;;;;;;;;;19.70;60.10;;;;;;5093540;28;19920;-73
2022/05/04 12:54:32;;;;;;;;;;;19.70;60.10;;;;;;5093476;28;20002;-72
2022/05/04 12:56:58;;;;;;;;;;;19.70;60.20;;;;;;5093708;28;20034;-72
2022/05/04 12:59:23;;;;;;;;;;;19.40;60.00;;;;;;5093352;28;20003;-72
2022/05/04 13:01:49;;;;;;;;;;;19.10;60.60;;;;;;5091805;28;20268;-72
2022/05/04 13:04:15;;;;;;;;;;;19.00;61.40;;;;;;5093315;28;19944;-72
2022/05/04 13:06:41;;;;;;;;;;;19.00;61.00;;;;;;5093333;28;19927;-73
2022/05/04 13:09:07;;;;;;;;;;;18.90;61.10;;;;;;5093058;28;19916;-72
2022/05/04 13:11:33;;;;;;;;;;;18.90;61.30;;;;;;5091982;28;19912;-72
2022/05/04 13:13:58;;;;;;;;;;;18.90;61.80;;;;;;5093053;28;20371;-72
2022/05/04 13:16:24;;;;;;;;;;;18.90;60.90;;;;;;5093331;28;20003;-72
2022/05/04 13:18:49;;;;;;;;;;;18.90;61.30;;;;;;5092141;28;20394;-73
2022/05/04 13:21:15;;;;;;;;;;;18.80;60.90;;;;;;5092847;28;19916;-72
2022/05/04 13:23:42;;;;;;;;;;;18.70;60.90;;;;;;5092935;28;20002;-73
2022/05/04 13:26:12;;;;;;;;;;;18.70;61.70;;;;;;5092602;28;19978;-72
2022/05/04 13:28:38;;;;;;;;;;;18.70;61.80;;;;;;5092712;28;19916;-72
2022/05/04 13:31:04;;;;;;;;;;;18.60;61.30;;;;;;5092553;28;20034;-72
2022/05/04 13:33:31;;;;;;;;;;;18.50;62.20;;;;;;5092886;28;19970;-72
2022/05/04 13:35:57;;;;;;;;;;;18.50;61.70;;;;;;5092606;28;20441;-72
2022/05/04 13:38:23;;;;;;;;;;;18.60;62.00;;;;;;5092645;28;20340;-72
2022/05/04 13:40:48;;;;;;;;;;;18.60;61.10;;;;;;5092653;28;19970;-72
2022/05/04 13:43:14;;;;;;;;;;;18.50;61.10;;;;;;5092983;28;20407;-72
2022/05/04 13:45:40;;;;;;;;;;;18.40;61.10;;;;;;5092357;28;19908;-73
2022/05/04 13:48:06;;;;;;;;;;;18.30;61.00;;;;;;5092570;28;19966;-72
2022/05/04 13:53:16;;;;;;;;;;;18.20;62.70;;;;;;5092337;28;19922;-72
2022/05/04 13:55:51;;;;;;;;;;;18.20;62.80;;;;;;5091967;28;20402;-72
2022/05/04 13:58:22;;;;;;;;;;;18.20;62.50;;;;;;5092456;28;19916;-72
2022/05/04 14:00:49;;;;;;;;;;;18.00;62.00;;;;;;5092232;28;20386;-72
2022/05/04 14:03:15;;;;;;;;;;;18.00;61.50;;;;;;5092203;28;19912;-72
2022/05/04 14:05:42;;;;;;;;;;;17.90;61.00;;;;;;5090660;28;19912;-72
2022/05/04 14:08:07;;;;;;;;;;;17.90;61.40;;;;;;5092212;28;19916;-71
2022/05/04 14:10:34;;;;;;;;;;;17.80;61.50;;;;;;5090604;28;19915;-73
2022/05/04 14:12:59;;;;;;;;;;;17.80;62.00;;;;;;5092371;28;19961;-72
2022/05/04 14:15:25;;;;;;;;;;;17.80;60.90;;;;;;5087762;28;20043;-70
2022/05/04 14:17:51;;;;;;;;;;;17.90;60.60;;;;;;5090923;28;20408;-70
2022/05/04 14:20:16;;;;;;;;;;;17.80;59.80;;;;;;5091687;28;19963;-70
2022/05/04 14:22:42;;;;;;;;;;;17.70;59.50;;;;;;5092040;28;19912;-70
2022/05/04 14:25:08;;;;;;;;;;;17.70;59.10;;;;;;5091696;28;19934;-70
2022/05/04 14:27:33;;;;;;;;;;;17.70;60.00;;;;;;5091685;28;20352;-70
2022/05/04 14:29:59;;;;;;;;;;;17.60;60.00;;;;;;5091280;28;20451;-70
2022/05/04 14:32:24;;;;;;;;;;;17.60;60.10;;;;;;5091825;28;19912;-70
2022/05/04 14:34:50;;;;;;;;;;;17.60;58.40;;;;;;5091665;28;19916;-69
2022/05/04 14:37:15;;;;;;;;;;;17.50;57.80;;;;;;5091777;28;19912;-69
2022/05/04 14:39:41;;;;;;;;;;;17.50;57.00;;;;;;5091436;28;19980;-70
2022/05/04 14:42:06;;;;;;;;;;;17.40;56.90;;;;;;5091767;28;19966;-70
2022/05/04 14:44:32;;;;;;;;;;;17.50;57.10;;;;;;5085968;28;19923;-70